sensor_id;sensor_type;location;lat;lon;timestamp;P1;durP1;ratioP1;P2;durP2;ratioP2
53642;SDS011;39546;45.534;12.048;2023-06-24T00:02:50;3.28;;;2.22;;
53642;SDS011;39546;45.534;12.048;2023-06-24T00:08:55;4.75;;;1.85;;
53642;SDS011;39546;45.534;12.048;2023-06-24T00:15:02;5.40;;;2.45;;
53642;SDS011;39546;45.534;12.048;2023-06-24T00:21:04;3.70;;;1.90;;
53642;SDS011;39546;45.534;12.048;2023-06-24T00:27:06;2.35;;;1.60;;
53642;SDS011;39546;45.534;12.048;2023-06-24T00:33:08;4.93;;;2.47;;
53642;SDS011;39546;45.534;12.048;2023-06-24T00:39:13;11.43;;;2.65;;
53642;SDS011;39546;45.534;12.048;2023-06-24T00:45:15;7.47;;;3.35;;
53642;SDS011;39546;45.534;12.048;2023-06-24T00:51:19;3.70;;;2.10;;
53642;SDS011;39546;45.534;12.048;2023-06-24T00:57:27;3.55;;;2.47;;
53642;SDS011;39546;45.534;12.048;2023-06-24T01:03:31;4.62;;;2.60;;
53642;SDS011;39546;45.534;12.048;2023-06-24T01:09:33;4.70;;;2.80;;
53642;SDS011;39546;45.534;12.048;2023-06-24T01:15:38;8.65;;;3.50;;
53642;SDS011;39546;45.534;12.048;2023-06-24T01:21:47;3.90;;;2.42;;
53642;SDS011;39546;45.534;12.048;2023-06-24T01:34:53;5.93;;;3.53;;
53642;SDS011;39546;45.534;12.048;2023-06-24T01:40:58;5.70;;;3.37;;
53642;SDS011;39546;45.534;12.048;2023-06-24T01:47:04;4.30;;;2.50;;
53642;SDS011;39546;45.534;12.048;2023-06-24T01:53:09;3.90;;;2.60;;
53642;SDS011;39546;45.534;12.048;2023-06-24T01:59:16;6.37;;;3.87;;
53642;SDS011;39546;45.534;12.048;2023-06-24T02:05:21;6.72;;;4.68;;
53642;SDS011;39546;45.534;12.048;2023-06-24T02:11:26;6.95;;;3.95;;
53642;SDS011;39546;45.534;12.048;2023-06-24T02:17:31;5.15;;;3.53;;
53642;SDS011;39546;45.534;12.048;2023-06-24T02:23:33;4.12;;;2.75;;
53642;SDS011;39546;45.534;12.048;2023-06-24T02:29:39;7.12;;;4.37;;
53642;SDS011;39546;45.534;12.048;2023-06-24T02:35:42;4.82;;;3.83;;
53642;SDS011;39546;45.534;12.048;2023-06-24T02:41:46;5.97;;;3.78;;
53642;SDS011;39546;45.534;12.048;2023-06-24T02:47:50;8.65;;;4.55;;
53642;SDS011;39546;45.534;12.048;2023-06-24T02:53:53;8.07;;;4.72;;
53642;SDS011;39546;45.534;12.048;2023-06-24T02:59:58;6.32;;;4.07;;
53642;SDS011;39546;45.534;12.048;2023-06-24T03:06:01;7.70;;;4.18;;
53642;SDS011;39546;45.534;12.048;2023-06-24T03:12:05;12.18;;;4.72;;
53642;SDS011;39546;45.534;12.048;2023-06-24T03:18:09;6.20;;;4.10;;
53642;SDS011;39546;45.534;12.048;2023-06-24T03:24:11;7.28;;;5.12;;
53642;SDS011;39546;45.534;12.048;2023-06-24T03:30:14;6.45;;;3.90;;
53642;SDS011;39546;45.534;12.048;2023-06-24T03:36:17;8.70;;;4.80;;
53642;SDS011;39546;45.534;12.048;2023-06-24T03:42:20;7.40;;;4.53;;
53642;SDS011;39546;45.534;12.048;2023-06-24T03:48:22;7.43;;;5.15;;
53642;SDS011;39546;45.534;12.048;2023-06-24T03:54:26;6.95;;;4.45;;
53642;SDS011;39546;45.534;12.048;2023-06-24T04:00:28;8.57;;;5.62;;
53642;SDS011;39546;45.534;12.048;2023-06-24T04:06:32;5.72;;;4.40;;
53642;SDS011;39546;45.534;12.048;2023-06-24T04:12:36;5.50;;;4.45;;
53642;SDS011;39546;45.534;12.048;2023-06-24T04:18:38;7.32;;;4.22;;
53642;SDS011;39546;45.534;12.048;2023-06-24T04:24:41;9.27;;;5.55;;
53642;SDS011;39546;45.534;12.048;2023-06-24T04:30:43;6.78;;;3.55;;
53642;SDS011;39546;45.534;12.048;2023-06-24T04:36:45;10.55;;;4.85;;
53642;SDS011;39546;45.534;12.048;2023-06-24T04:42:47;8.93;;;5.22;;
53642;SDS011;39546;45.534;12.048;2023-06-24T04:48:49;8.68;;;4.57;;
53642;SDS011;39546;45.534;12.048;2023-06-24T04:54:51;6.45;;;5.07;;
53642;SDS011;39546;45.534;12.048;2023-06-24T05:00:53;7.28;;;4.75;;
53642;SDS011;39546;45.534;12.048;2023-06-24T05:06:55;11.90;;;6.85;;
53642;SDS011;39546;45.534;12.048;2023-06-24T05:12:57;6.32;;;4.87;;
53642;SDS011;39546;45.534;12.048;2023-06-24T05:18:59;6.87;;;3.92;;
53642;SDS011;39546;45.534;12.048;2023-06-24T05:25:01;7.90;;;4.35;;
53642;SDS011;39546;45.534;12.048;2023-06-24T05:31:04;6.90;;;3.42;;
53642;SDS011;39546;45.534;12.048;2023-06-24T05:37:06;9.32;;;3.90;;
53642;SDS011;39546;45.534;12.048;2023-06-24T05:43:09;7.93;;;4.10;;
53642;SDS011;39546;45.534;12.048;2023-06-24T05:49:13;4.72;;;2.90;;
53642;SDS011;39546;45.534;12.048;2023-06-24T05:55:15;6.10;;;3.72;;
53642;SDS011;39546;45.534;12.048;2023-06-24T06:01:17;6.03;;;3.15;;
53642;SDS011;39546;45.534;12.048;2023-06-24T06:07:20;4.97;;;2.08;;
53642;SDS011;39546;45.534;12.048;2023-06-24T06:13:22;4.12;;;2.78;;
53642;SDS011;39546;45.534;12.048;2023-06-24T06:19:24;3.58;;;2.28;;
53642;SDS011;39546;45.534;12.048;2023-06-24T06:25:25;4.18;;;2.03;;
53642;SDS011;39546;45.534;12.048;2023-06-24T06:31:28;3.80;;;2.60;;
53642;SDS011;39546;45.534;12.048;2023-06-24T06:37:30;4.40;;;3.03;;
53642;SDS011;39546;45.534;12.048;2023-06-24T06:43:33;2.78;;;1.95;;
53642;SDS011;39546;45.534;12.048;2023-06-24T06:49:35;3.22;;;1.90;;
53642;SDS011;39546;45.534;12.048;2023-06-24T06:55:37;4.68;;;2.78;;
53642;SDS011;39546;45.534;12.048;2023-06-24T07:01:40;4.20;;;2.47;;
53642;SDS011;39546;45.534;12.048;2023-06-24T07:07:43;2.90;;;2.00;;
53642;SDS011;39546;45.534;12.048;2023-06-24T07:13:46;5.10;;;3.03;;
53642;SDS011;39546;45.534;12.048;2023-06-24T07:19:58;5.30;;;2.00;;
53642;SDS011;39546;45.534;12.048;2023-06-24T07:26:00;5.43;;;2.60;;
53642;SDS011;39546;45.534;12.048;2023-06-24T07:32:06;3.28;;;1.67;;
53642;SDS011;39546;45.534;12.048;2023-06-24T07:38:09;4.00;;;2.15;;
53642;SDS011;39546;45.534;12.048;2023-06-24T07:44:11;2.85;;;1.52;;
53642;SDS011;39546;45.534;12.048;2023-06-24T07:50:13;2.00;;;1.42;;
53642;SDS011;39546;45.534;12.048;2023-06-24T07:56:15;3.65;;;2.15;;
53642;SDS011;39546;45.534;12.048;2023-06-24T08:02:17;5.75;;;2.28;;
53642;SDS011;39546;45.534;12.048;2023-06-24T08:08:19;5.53;;;2.53;;
53642;SDS011;39546;45.534;12.048;2023-06-24T08:14:21;2.47;;;1.37;;
53642;SDS011;39546;45.534;12.048;2023-06-24T08:20:23;5.03;;;2.55;;
53642;SDS011;39546;45.534;12.048;2023-06-24T08:26:26;3.53;;;2.15;;
53642;SDS011;39546;45.534;12.048;2023-06-24T08:32:28;2.60;;;1.35;;
53642;SDS011;39546;45.534;12.048;2023-06-24T08:38:30;3.10;;;1.67;;
53642;SDS011;39546;45.534;12.048;2023-06-24T08:44:32;3.58;;;2.17;;
53642;SDS011;39546;45.534;12.048;2023-06-24T08:50:38;3.35;;;1.90;;
53642;SDS011;39546;45.534;12.048;2023-06-24T08:56:45;3.92;;;2.10;;
53642;SDS011;39546;45.534;12.048;2023-06-24T09:02:48;4.07;;;2.33;;
53642;SDS011;39546;45.534;12.048;2023-06-24T09:08:55;3.67;;;1.92;;
53642;SDS011;39546;45.534;12.048;2023-06-24T09:14:57;3.80;;;2.20;;
53642;SDS011;39546;45.534;12.048;2023-06-24T09:21:00;3.33;;;1.70;;
53642;SDS011;39546;45.534;12.048;2023-06-24T09:27:03;3.87;;;2.08;;
53642;SDS011;39546;45.534;12.048;2023-06-24T09:33:05;2.50;;;1.42;;
53642;SDS011;39546;45.534;12.048;2023-06-24T09:39:11;3.03;;;1.92;;
53642;SDS011;39546;45.534;12.048;2023-06-24T09:45:13;5.87;;;3.33;;
53642;SDS011;39546;45.534;12.048;2023-06-24T09:51:15;2.22;;;1.55;;
53642;SDS011;39546;45.534;12.048;2023-06-24T09:57:21;2.47;;;1.50;;
53642;SDS011;39546;45.534;12.048;2023-06-24T10:03:32;3.35;;;1.33;;
53642;SDS011;39546;45.534;12.048;2023-06-24T10:09:38;4.03;;;2.53;;
53642;SDS011;39546;45.534;12.048;2023-06-24T10:15:46;5.18;;;1.50;;
53642;SDS011;39546;45.534;12.048;2023-06-24T10:22:22;2.08;;;1.40;;
53642;SDS011;39546;45.534;12.048;2023-06-24T10:28:25;3.05;;;1.48;;
53642;SDS011;39546;45.534;12.048;2023-06-24T10:34:28;4.78;;;1.33;;
53642;SDS011;39546;45.534;12.048;2023-06-24T10:40:37;2.65;;;1.50;;
53642;SDS011;39546;45.534;12.048;2023-06-24T10:46:41;7.60;;;2.95;;
53642;SDS011;39546;45.534;12.048;2023-06-24T10:52:46;2.33;;;1.33;;
53642;SDS011;39546;45.534;12.048;2023-06-24T10:58:54;3.00;;;1.63;;
53642;SDS011;39546;45.534;12.048;2023-06-24T11:05:00;4.35;;;1.60;;
53642;SDS011;39546;45.534;12.048;2023-06-24T11:11:04;2.50;;;1.50;;
53642;SDS011;39546;45.534;12.048;2023-06-24T11:17:07;2.85;;;1.58;;
53642;SDS011;39546;45.534;12.048;2023-06-24T11:23:11;1.30;;;1.08;;
53642;SDS011;39546;45.534;12.048;2023-06-24T11:29:13;2.33;;;1.50;;
53642;SDS011;39546;45.534;12.048;2023-06-24T11:35:15;3.25;;;1.75;;
53642;SDS011;39546;45.534;12.048;2023-06-24T11:41:20;3.78;;;2.30;;
53642;SDS011;39546;45.534;12.048;2023-06-24T11:47:24;6.97;;;2.12;;
53642;SDS011;39546;45.534;12.048;2023-06-24T11:53:30;7.57;;;1.70;;
53642;SDS011;39546;45.534;12.048;2023-06-24T11:59:43;2.87;;;1.30;;
53642;SDS011;39546;45.534;12.048;2023-06-24T12:05:46;2.37;;;1.35;;
53642;SDS011;39546;45.534;12.048;2023-06-24T12:11:49;2.67;;;1.42;;
53642;SDS011;39546;45.534;12.048;2023-06-24T12:17:51;4.35;;;2.10;;
53642;SDS011;39546;45.534;12.048;2023-06-24T12:23:53;2.92;;;1.52;;
53642;SDS011;39546;45.534;12.048;2023-06-24T12:29:55;1.52;;;1.08;;
53642;SDS011;39546;45.534;12.048;2023-06-24T12:35:58;4.57;;;1.08;;
53642;SDS011;39546;45.534;12.048;2023-06-24T12:42:14;1.15;;;0.43;;
53642;SDS011;39546;45.534;12.048;2023-06-24T12:48:22;1.50;;;0.80;;
53642;SDS011;39546;45.534;12.048;2023-06-24T12:54:25;1.62;;;0.82;;
53642;SDS011;39546;45.534;12.048;2023-06-24T13:00:26;3.25;;;1.00;;
53642;SDS011;39546;45.534;12.048;2023-06-24T13:06:28;1.37;;;0.93;;
53642;SDS011;39546;45.534;12.048;2023-06-24T13:12:30;1.92;;;1.17;;
53642;SDS011;39546;45.534;12.048;2023-06-24T13:18:37;2.72;;;1.27;;
53642;SDS011;39546;45.534;12.048;2023-06-24T13:24:41;4.10;;;1.08;;
53642;SDS011;39546;45.534;12.048;2023-06-24T13:30:43;2.92;;;1.62;;
53642;SDS011;39546;45.534;12.048;2023-06-24T13:36:46;5.40;;;2.45;;
53642;SDS011;39546;45.534;12.048;2023-06-24T13:42:48;3.05;;;1.42;;
53642;SDS011;39546;45.534;12.048;2023-06-24T13:48:50;3.55;;;2.08;;
53642;SDS011;39546;45.534;12.048;2023-06-24T13:54:52;5.50;;;2.35;;
53642;SDS011;39546;45.534;12.048;2023-06-24T14:00:54;2.87;;;1.65;;
53642;SDS011;39546;45.534;12.048;2023-06-24T14:06:56;3.20;;;1.60;;
53642;SDS011;39546;45.534;12.048;2023-06-24T14:12:59;5.55;;;1.90;;
53642;SDS011;39546;45.534;12.048;2023-06-24T14:19:01;1.80;;;1.10;;
53642;SDS011;39546;45.534;12.048;2023-06-24T14:25:03;3.05;;;1.58;;
53642;SDS011;39546;45.534;12.048;2023-06-24T14:31:05;3.97;;;1.12;;
53642;SDS011;39546;45.534;12.048;2023-06-24T14:37:08;3.65;;;1.58;;
53642;SDS011;39546;45.534;12.048;2023-06-24T14:43:10;2.33;;;1.27;;
53642;SDS011;39546;45.534;12.048;2023-06-24T14:49:12;2.20;;;1.08;;
53642;SDS011;39546;45.534;12.048;2023-06-24T14:55:14;2.33;;;1.27;;
53642;SDS011;39546;45.534;12.048;2023-06-24T15:01:16;2.67;;;1.60;;
53642;SDS011;39546;45.534;12.048;2023-06-24T15:07:19;1.75;;;1.05;;
53642;SDS011;39546;45.534;12.048;2023-06-24T15:13:23;2.85;;;1.42;;
53642;SDS011;39546;45.534;12.048;2023-06-24T15:19:29;2.95;;;1.45;;
53642;SDS011;39546;45.534;12.048;2023-06-24T15:25:54;1.72;;;1.08;;
53642;SDS011;39546;45.534;12.048;2023-06-24T15:31:57;3.00;;;1.55;;
53642;SDS011;39546;45.534;12.048;2023-06-24T15:38:01;1.55;;;1.33;;
53642;SDS011;39546;45.534;12.048;2023-06-24T15:44:06;3.40;;;1.12;;
53642;SDS011;39546;45.534;12.048;2023-06-24T15:50:08;3.40;;;1.30;;
53642;SDS011;39546;45.534;12.048;2023-06-24T15:56:11;7.32;;;1.37;;
53642;SDS011;39546;45.534;12.048;2023-06-24T16:02:13;7.22;;;1.75;;
53642;SDS011;39546;45.534;12.048;2023-06-24T16:08:16;2.85;;;1.25;;
53642;SDS011;39546;45.534;12.048;2023-06-24T16:14:19;3.40;;;1.10;;
53642;SDS011;39546;45.534;12.048;2023-06-24T16:20:22;3.33;;;1.75;;
53642;SDS011;39546;45.534;12.048;2023-06-24T16:26:24;1.48;;;1.20;;
53642;SDS011;39546;45.534;12.048;2023-06-24T16:32:26;2.05;;;1.15;;
53642;SDS011;39546;45.534;12.048;2023-06-24T16:38:28;2.08;;;1.00;;
53642;SDS011;39546;45.534;12.048;2023-06-24T16:44:30;2.00;;;1.10;;
53642;SDS011;39546;45.534;12.048;2023-06-24T16:50:37;4.20;;;1.02;;
53642;SDS011;39546;45.534;12.048;2023-06-24T16:56:39;1.42;;;0.82;;
53642;SDS011;39546;45.534;12.048;2023-06-24T17:02:42;2.03;;;0.80;;
53642;SDS011;39546;45.534;12.048;2023-06-24T17:08:53;1.87;;;0.95;;
53642;SDS011;39546;45.534;12.048;2023-06-24T17:14:55;1.00;;;0.82;;
53642;SDS011;39546;45.534;12.048;2023-06-24T17:20:57;2.28;;;1.08;;
53642;SDS011;39546;45.534;12.048;2023-06-24T17:26:59;7.70;;;1.30;;
53642;SDS011;39546;45.534;12.048;2023-06-24T17:33:01;2.33;;;1.12;;
53642;SDS011;39546;45.534;12.048;2023-06-24T17:39:03;1.12;;;0.60;;
53642;SDS011;39546;45.534;12.048;2023-06-24T17:45:06;2.05;;;0.85;;
53642;SDS011;39546;45.534;12.048;2023-06-24T17:51:08;1.02;;;0.68;;
53642;SDS011;39546;45.534;12.048;2023-06-24T17:57:11;0.93;;;0.62;;
53642;SDS011;39546;45.534;12.048;2023-06-24T18:03:13;1.58;;;0.50;;
53642;SDS011;39546;45.534;12.048;2023-06-24T18:09:15;0.85;;;0.40;;
53642;SDS011;39546;45.534;12.048;2023-06-24T18:15:18;2.78;;;0.80;;
53642;SDS011;39546;45.534;12.048;2023-06-24T18:21:20;0.90;;;0.40;;
53642;SDS011;39546;45.534;12.048;2023-06-24T18:27:22;1.58;;;0.47;;
53642;SDS011;39546;45.534;12.048;2023-06-24T18:33:24;1.25;;;0.85;;
53642;SDS011;39546;45.534;12.048;2023-06-24T18:39:26;1.60;;;0.70;;
53642;SDS011;39546;45.534;12.048;2023-06-24T18:45:28;0.62;;;0.30;;
53642;SDS011;39546;45.534;12.048;2023-06-24T18:51:31;2.15;;;1.52;;
53642;SDS011;39546;45.534;12.048;2023-06-24T18:57:33;1.10;;;0.70;;
53642;SDS011;39546;45.534;12.048;2023-06-24T19:03:51;3.75;;;0.65;;
53642;SDS011;39546;45.534;12.048;2023-06-24T19:09:57;6.87;;;0.73;;
53642;SDS011;39546;45.534;12.048;2023-06-24T19:16:03;0.25;;;0.25;;
53642;SDS011;39546;45.534;12.048;2023-06-24T19:22:05;2.40;;;0.65;;
53642;SDS011;39546;45.534;12.048;2023-06-24T19:28:08;0.55;;;0.40;;
53642;SDS011;39546;45.534;12.048;2023-06-24T19:34:11;0.22;;;0.20;;
53642;SDS011;39546;45.534;12.048;2023-06-24T19:40:13;1.80;;;0.47;;
53642;SDS011;39546;45.534;12.048;2023-06-24T19:46:15;1.25;;;0.62;;
53642;SDS011;39546;45.534;12.048;2023-06-24T19:52:35;7.03;;;0.50;;
53642;SDS011;39546;45.534;12.048;2023-06-24T19:58:38;0.62;;;0.30;;
53642;SDS011;39546;45.534;12.048;2023-06-24T20:04:40;2.35;;;0.90;;
53642;SDS011;39546;45.534;12.048;2023-06-24T20:10:42;0.73;;;0.50;;
53642;SDS011;39546;45.534;12.048;2023-06-24T20:16:44;1.62;;;0.73;;
53642;SDS011;39546;45.534;12.048;2023-06-24T20:22:46;3.05;;;0.70;;
53642;SDS011;39546;45.534;12.048;2023-06-24T20:28:48;2.40;;;0.85;;
53642;SDS011;39546;45.534;12.048;2023-06-24T20:34:50;1.08;;;0.65;;
53642;SDS011;39546;45.534;12.048;2023-06-24T20:40:52;0.52;;;0.37;;
53642;SDS011;39546;45.534;12.048;2023-06-24T20:46:57;0.55;;;0.50;;
53642;SDS011;39546;45.534;12.048;2023-06-24T20:52:59;3.00;;;0.60;;
53642;SDS011;39546;45.534;12.048;2023-06-24T20:59:01;1.60;;;0.57;;
53642;SDS011;39546;45.534;12.048;2023-06-24T21:11:25;1.15;;;0.30;;
53642;SDS011;39546;45.534;12.048;2023-06-24T21:17:28;0.37;;;0.25;;
53642;SDS011;39546;45.534;12.048;2023-06-24T21:23:33;8.98;;;0.82;;
53642;SDS011;39546;45.534;12.048;2023-06-24T21:29:47;6.00;;;1.08;;
53642;SDS011;39546;45.534;12.048;2023-06-24T21:35:49;0.73;;;0.50;;
53642;SDS011;39546;45.534;12.048;2023-06-24T21:41:51;5.95;;;1.42;;
53642;SDS011;39546;45.534;12.048;2023-06-24T21:47:53;0.68;;;0.30;;
53642;SDS011;39546;45.534;12.048;2023-06-24T21:53:56;0.75;;;0.35;;
53642;SDS011;39546;45.534;12.048;2023-06-24T21:59:58;1.60;;;0.68;;
53642;SDS011;39546;45.534;12.048;2023-06-24T22:06:00;0.15;;;0.10;;
53642;SDS011;39546;45.534;12.048;2023-06-24T22:12:03;0.20;;;0.20;;
53642;SDS011;39546;45.534;12.048;2023-06-24T22:18:07;0.35;;;0.10;;
53642;SDS011;39546;45.534;12.048;2023-06-24T22:24:09;0.20;;;0.20;;
53642;SDS011;39546;45.534;12.048;2023-06-24T22:30:11;0.40;;;0.40;;
53642;SDS011;39546;45.534;12.048;2023-06-24T22:36:14;3.87;;;0.55;;
53642;SDS011;39546;45.534;12.048;2023-06-24T22:42:16;0.85;;;0.28;;
53642;SDS011;39546;45.534;12.048;2023-06-24T22:48:18;0.90;;;0.50;;
53642;SDS011;39546;45.534;12.048;2023-06-24T22:54:20;1.05;;;0.50;;
53642;SDS011;39546;45.534;12.048;2023-06-24T23:00:22;1.00;;;0.45;;
53642;SDS011;39546;45.534;12.048;2023-06-24T23:06:24;1.98;;;0.50;;
53642;SDS011;39546;45.534;12.048;2023-06-24T23:12:26;0.37;;;0.30;;
53642;SDS011;39546;45.534;12.048;2023-06-24T23:18:29;1.45;;;0.90;;
53642;SDS011;39546;45.534;12.048;2023-06-24T23:24:31;1.25;;;0.37;;
53642;SDS011;39546;45.534;12.048;2023-06-24T23:30:33;1.05;;;0.57;;
53642;SDS011;39546;45.534;12.048;2023-06-24T23:36:37;1.80;;;1.02;;
53642;SDS011;39546;45.534;12.048;2023-06-24T23:42:39;1.45;;;0.68;;
53642;SDS011;39546;45.534;12.048;2023-06-24T23:48:43;2.45;;;1.10;;
53642;SDS011;39546;45.534;12.048;2023-06-24T23:54:45;4.18;;;1.30;;
